Wetterdaten: Woche 13.12.10 - 19.12.10 (KW50)
Datum Zeit Temp. A. Feuchte A. Luftdruck Regen Wind Richtung Taupunkt Windchill Windben
13.12.2010 00:00 1,1 C 75 % 1009,6 hPa 0,0 l/m 9,9 km/h N-NW -2,8 C -2,0 C 21,3 km/h
13.12.2010 01:00 0,6 C 72 % 1010,0 hPa 0,0 l/m 10,0 km/h N-NW -3,9 C -2,7 C 24,1 km/h
13.12.2010 02:00 0,3 C 71 % 1010,4 hPa 0,0 l/m 12,3 km/h NW -4,5 C -4,9 C 29,0 km/h
13.12.2010 03:00 -0,1 C 70 % 1010,7 hPa 0,0 l/m 13,3 km/h NW -5,0 C -6,0 C 28,2 km/h
13.12.2010 04:00 -0,2 C 71 % 1011,5 hPa 0,0 l/m 11,6 km/h NW -4,8 C -4,9 C 26,1 km/h
13.12.2010 05:00 -0,4 C 72 % 1012,1 hPa 0,0 l/m 11,9 km/h NW -4,9 C -5,4 C 27,3 km/h
13.12.2010 06:00 -0,6 C 70 % 1012,9 hPa 0,0 l/m 12,7 km/h N-NW -5,3 C -6,2 C 27,0 km/h
13.12.2010 07:00 -0,9 C 70 % 1013,6 hPa 0,0 l/m 13,1 km/h N-NW -5,7 C -6,8 C 30,6 km/h
13.12.2010 08:00 -1,5 C 73 % 1014,4 hPa 0,0 l/m 10,8 km/h N-NW -5,7 C -5,7 C 24,5 km/h
13.12.2010 09:00 -1,6 C 76 % 1015,0 hPa 0,0 l/m 10,6 km/h N-NW -5,3 C -5,6 C 24,6 km/h
13.12.2010 10:00 -1,4 C 71 % 1015,4 hPa 0,0 l/m 13,3 km/h N-NW -6,0 C -7,6 C 28,5 km/h
13.12.2010 11:00 -1,2 C 63 % 1015,5 hPa 0,0 l/m 12,9 km/h NW -7,3 C -7,0 C 28,2 km/h
13.12.2010 12:00 -1,2 C 63 % 1015,5 hPa 0,0 l/m 15,3 km/h NW -7,4 C -8,6 C 30,6 km/h
13.12.2010 13:00 -1,8 C 68 % 1016,0 hPa 0,0 l/m 13,7 km/h NW -7,0 C -8,3 C 29,8 km/h
13.12.2010 14:00 -2,0 C 66 % 1016,3 hPa 0,0 l/m 12,9 km/h NW -7,6 C -8,0 C 31,4 km/h
13.12.2010 15:00 -2,3 C 63 % 1016,8 hPa 0,0 l/m 11,4 km/h W-NW -8,3 C -7,0 C 29,5 km/h
13.12.2010 16:00 -2,6 C 64 % 1017,0 hPa 0,0 l/m 9,6 km/h NW -8,4 C -5,9 C 27,4 km/h
13.12.2010 17:00 -3,1 C 62 % 1017,6 hPa 0,0 l/m 14,5 km/h NW -9,4 C -10,4 C 38,6 km/h
13.12.2010 18:00 -3,5 C 60 % 1017,8 hPa 0,0 l/m 11,3 km/h NW -10,2 C -8,4 C 32,2 km/h
13.12.2010 19:00 -3,6 C 59 % 1018,2 hPa 0,0 l/m 9,7 km/h NW -10,4 C -7,1 C 25,8 km/h
13.12.2010 20:00 -3,3 C 64 % 1018,0 hPa 0,0 l/m 9,7 km/h NW -9,2 C -6,9 C 29,0 km/h
13.12.2010 21:00 -3,6 C 66 % 1018,2 hPa 0,0 l/m 10,5 km/h NW -9,1 C -7,9 C 30,6 km/h
13.12.2010 22:00 -3,9 C 69 % 1018,4 hPa 0,0 l/m 7,2 km/h NW -8,7 C -4,8 C 22,5 km/h
13.12.2010 23:00 -4,1 C 69 % 1018,5 hPa 0,0 l/m 5,6 km/h NW -8,9 C -4,0 C 19,3 km/h
14.12.2010 00:00 -4,4 C 70 % 1018,4 hPa 0,0 l/m 6,4 km/h NW -9,0 C -4,3 C 20,9 km/h
14.12.2010 01:00 -4,6 C 72 % 1018,2 hPa 0,0 l/m 6,4 km/h NW -8,9 C -4,5 C 21,7 km/h
14.12.2010 02:00 -4,7 C 71 % 1018,3 hPa 0,0 l/m 8,0 km/h NW -9,2 C -6,6 C 27,4 km/h
14.12.2010 03:00 -4,7 C 71 % 1018,1 hPa 0,0 l/m 8,0 km/h NW -9,1 C -6,6 C 21,7 km/h
14.12.2010 04:00 -4,8 C 71 % 1018,0 hPa 0,0 l/m 8,9 km/h NW -9,2 C -7,5 C 29,8 km/h
14.12.2010 05:00 -4,7 C 71 % 1018,1 hPa 0,0 l/m 9,7 km/h W -9,1 C -8,4 C 29,0 km/h
14.12.2010 06:00 -4,8 C 70 % 1018,4 hPa 0,0 l/m 8,9 km/h NW -9,5 C -7,5 C 25,8 km/h
14.12.2010 07:00 -4,7 C 68 % 1018,4 hPa 0,0 l/m 9,7 km/h W -9,7 C -8,4 C 27,4 km/h
14.12.2010 08:00 -4,4 C 66 % 1018,7 hPa 0,0 l/m 9,7 km/h W -9,8 C -8,1 C 29,0 km/h
14.12.2010 09:00 -4,1 C 65 % 1018,8 hPa 0,0 l/m 12,5 km/h W-NW -9,7 C -10,1 C 31,0 km/h
14.12.2010 10:00 -3,7 C 62 % 1019,0 hPa 0,0 l/m 11,0 km/h NW -9,8 C -8,4 C 27,4 km/h
14.12.2010 11:00 -3,7 C 67 % 1019,0 hPa 0,0 l/m 11,3 km/h NW -9,0 C -8,6 C 32,2 km/h
14.12.2010 12:00 -3,8 C 74 % 1019,0 hPa 0,0 l/m 10,5 km/h NW -7,9 C -8,1 C 33,0 km/h
14.12.2010 13:00 -3,9 C 75 % 1018,8 hPa 0,0 l/m 10,5 km/h NW -7,7 C -8,2 C 33,8 km/h
14.12.2010 14:00 -4,2 C 80 % 1018,8 hPa 0,0 l/m 10,3 km/h W-SW -7,1 C -8,3 C 25,2 km/h
14.12.2010 15:00 -4,1 C 80 % 1018,8 hPa 0,0 l/m 11,8 km/h NW -7,0 C -9,5 C 32,2 km/h
14.12.2010 16:00 -3,8 C 77 % 1019,0 hPa 0,0 l/m 9,6 km/h W-NW -7,3 C -7,3 C 30,6 km/h
14.12.2010 17:00 -4,0 C 79 % 1019,0 hPa 0,0 l/m 11,3 km/h W-NW -7,0 C -8,9 C 29,0 km/h
14.12.2010 18:00 -4,1 C 81 % 1018,7 hPa 0,0 l/m 12,1 km/h W -6,9 C -9,8 C 39,4 km/h
14.12.2010 19:00 -4,1 C 82 % 1018,5 hPa 0,0 l/m 12,9 km/h W -6,8 C -10,4 C 34,6 km/h
14.12.2010 20:00 -4,0 C 83 % 1018,3 hPa 0,0 l/m 12,1 km/h W -6,5 C -9,6 C 33,8 km/h
14.12.2010 21:00 -3,8 C 83 % 1018,3 hPa 0,0 l/m 12,9 km/h W -6,3 C -10,1 C 37,8 km/h
14.12.2010 22:00 -3,7 C 82 % 1018,0 hPa 0,0 l/m 13,7 km/h W -6,3 C -10,5 C 32,2 km/h
14.12.2010 23:00 -3,8 C 83 % 1017,9 hPa 0,0 l/m 14,5 km/h W -6,3 C -11,2 C 41,0 km/h
15.12.2010 00:00 -3,6 C 81 % 1017,7 hPa 0,0 l/m 13,7 km/h W -6,4 C -10,4 C 37,0 km/h
15.12.2010 01:00 -3,6 C 80 % 1017,3 hPa 0,0 l/m 15,3 km/h W-NW -6,5 C -11,5 C 39,5 km/h
15.12.2010 02:00 -3,7 C 83 % 1017,4 hPa 0,0 l/m 14,5 km/h W -6,2 C -11,1 C 39,4 km/h
15.12.2010 03:00 -3,6 C 82 % 1017,2 hPa 0,0 l/m 12,1 km/h W -6,2 C -9,2 C 31,4 km/h
15.12.2010 04:00 -3,4 C 78 % 1016,9 hPa 0,0 l/m 12,9 km/h W-NW -6,7 C -9,6 C 33,0 km/h
15.12.2010 05:00 -3,5 C 79 % 1016,8 hPa 0,0 l/m 12,1 km/h W-NW -6,6 C -9,0 C 29,8 km/h
15.12.2010 06:00 -3,6 C 82 % 1016,9 hPa 0,0 l/m 12,9 km/h W-NW -6,3 C -9,8 C 37,0 km/h
15.12.2010 07:00 -3,8 C 83 % 1017,4 hPa 0,0 l/m 12,9 km/h W-NW -6,3 C -10,0 C 36,2 km/h
15.12.2010 08:00 -3,9 C 83 % 1018,0 hPa 0,0 l/m 10,5 km/h W -6,4 C -8,2 C 32,2 km/h
15.12.2010 09:00 -4,0 C 83 % 1018,4 hPa 0,0 l/m 11,3 km/h W -6,5 C -9,0 C 29,8 km/h
15.12.2010 10:00 -3,7 C 83 % 1018,7 hPa 0,0 l/m 11,8 km/h SW -6,2 C -9,1 C 31,1 km/h
15.12.2010 11:00 -3,6 C 82 % 1018,7 hPa 0,0 l/m 11,3 km/h W-NW -6,1 C -8,5 C 33,0 km/h
15.12.2010 12:00 -3,4 C 80 % 1018,5 hPa 0,0 l/m 10,7 km/h W-SW -6,3 C -7,8 C 27,4 km/h
15.12.2010 13:00 -3,2 C 78 % 1018,4 hPa 0,0 l/m 10,0 km/h W -6,6 C -7,0 C 29,0 km/h
15.12.2010 14:00 -3,4 C 76 % 1018,6 hPa 0,0 l/m 10,6 km/h NW -7,0 C -7,8 C 29,8 km/h
15.12.2010 15:00 -3,7 C 77 % 1018,8 hPa 0,0 l/m 10,8 km/h W -7,2 C -8,2 C 29,4 km/h
15.12.2010 16:00 -3,8 C 75 % 1019,4 hPa 0,0 l/m 8,7 km/h NW -7,5 C -6,4 C 23,7 km/h
15.12.2010 17:00 -3,9 C 78 % 1019,7 hPa 0,0 l/m 6,9 km/h W-NW -7,2 C -4,7 C 20,5 km/h
15.12.2010 18:00 -4,1 C 80 % 1020,1 hPa 0,0 l/m 5,9 km/h NW -7,0 C -4,2 C 18,1 km/h
15.12.2010 19:00 -4,1 C 78 % 1020,4 hPa 0,0 l/m 6,0 km/h W-SW -7,4 C -4,4 C 20,9 km/h
15.12.2010 20:00 -4,3 C 77 % 1020,7 hPa 0,0 l/m 4,3 km/h W -7,8 C -4,3 C 14,1 km/h
15.12.2010 21:00 -4,6 C 77 % 1021,0 hPa 0,0 l/m 3,0 km/h W -8,0 C -4,6 C 12,1 km/h
15.12.2010 22:00 -4,8 C 77 % 1021,0 hPa 0,0 l/m 2,4 km/h W-SW -8,1 C -4,8 C 10,5 km/h
15.12.2010 23:00 -5,0 C 78 % 1021,0 hPa 0,0 l/m 1,1 km/h W-NW -8,2 C -5,0 C 6,0 km/h
16.12.2010 00:00 -5,6 C 79 % 1020,9 hPa 0,0 l/m 0,1 km/h N -8,6 C -5,6 C 2,4 km/h
16.12.2010 01:00 -7,0 C 80 % 1020,7 hPa 0,0 l/m 0,1 km/h N -9,9 C -7,0 C 1,6 km/h
16.12.2010 02:00 -8,6 C 81 % 1020,5 hPa 0,0 l/m 0,0 km/h N -11,2 C -8,6 C 0,8 km/h
16.12.2010 03:00 -9,7 C 83 % 1020,3 hPa 0,0 l/m 0,0 km/h N -12,1 C -9,7 C 0,4 km/h
16.12.2010 04:00 -10,2 C 84 % 1019,8 hPa 0,0 l/m 0,0 km/h N -12,4 C -10,2 C 0,0 km/h
16.12.2010 05:00 -10,8 C 84 % 1019,8 hPa 0,0 l/m 0,0 km/h N -13,0 C -10,8 C 1,2 km/h
16.12.2010 06:00 -10,8 C 85 % 1019,8 hPa 0,0 l/m 0,0 km/h N -12,8 C -10,8 C 0,4 km/h
16.12.2010 07:00 -10,3 C 85 % 1019,9 hPa 0,0 l/m 0,0 km/h N -12,3 C -10,3 C 0,8 km/h
16.12.2010 08:00 -9,6 C 85 % 1020,1 hPa 0,0 l/m 0,0 km/h N -11,6 C -9,6 C 0,4 km/h
16.12.2010 09:00 -9,3 C 85 % 1019,5 hPa 0,0 l/m 0,1 km/h N -11,3 C -9,3 C 1,6 km/h
16.12.2010 10:00 -8,5 C 86 % 1018,9 hPa 0,0 l/m 0,1 km/h N -10,5 C -8,5 C 2,0 km/h
16.12.2010 11:00 -7,4 C 86 % 1018,0 hPa 0,0 l/m 1,0 km/h O-NO -9,4 C -7,4 C 4,4 km/h
16.12.2010 12:00 -6,4 C 85 % 1016,7 hPa 0,0 l/m 1,1 km/h O-NO -8,6 C -6,4 C 4,4 km/h
16.12.2010 13:00 -3,8 C 75 % 1015,5 hPa 0,0 l/m 3,3 km/h NW -7,5 C -3,8 C 12,1 km/h
16.12.2010 14:00 -3,2 C 66 % 1014,7 hPa 0,0 l/m 2,7 km/h SW -8,7 C -3,2 C 8,9 km/h
16.12.2010 15:00 -3,3 C 64 % 1014,4 hPa 0,0 l/m 3,3 km/h SW -9,1 C -3,3 C 13,7 km/h
16.12.2010 16:00 -4,5 C 69 % 1014,1 hPa 0,0 l/m 0,6 km/h N -9,4 C -4,5 C 5,2 km/h
16.12.2010 17:00 -6,1 C 75 % 1013,4 hPa 0,0 l/m 0,1 km/h N -9,9 C -6,1 C 2,8 km/h
16.12.2010 18:00 -7,8 C 77 % 1012,7 hPa 0,0 l/m 0,0 km/h N -11,1 C -7,8 C 0,8 km/h
16.12.2010 19:00 -9,5 C 80 % 1012,1 hPa 0,0 l/m 0,0 km/h N -12,3 C -9,5 C 1,2 km/h
16.12.2010 20:00 -8,6 C 83 % 1011,4 hPa 0,0 l/m 2,1 km/h S -11,0 C -8,6 C 11,3 km/h
16.12.2010 21:00 -7,6 C 83 % 1010,8 hPa 0,0 l/m 2,7 km/h S-SO -9,9 C -7,6 C 11,3 km/h
16.12.2010 22:00 -8,0 C 82 % 1009,8 hPa 0,0 l/m 1,7 km/h S -10,5 C -8,0 C 9,6 km/h
16.12.2010 23:00 -8,3 C 81 % 1008,9 hPa 0,0 l/m 0,7 km/h N -10,9 C -8,3 C 4,8 km/h
17.12.2010 00:00 -9,0 C 81 % 1007,9 hPa 0,0 l/m 0,3 km/h N -11,6 C -9,0 C 3,6 km/h
17.12.2010 01:00 -9,5 C 82 % 1006,8 hPa 0,0 l/m 0,8 km/h S-SO -12,1 C -9,5 C 6,4 km/h
17.12.2010 02:00 -9,2 C 81 % 1005,8 hPa 0,0 l/m 1,3 km/h S -11,8 C -9,2 C 7,6 km/h
17.12.2010 03:00 -8,9 C 79 % 1004,8 hPa 0,0 l/m 0,7 km/h S -11,9 C -8,9 C 5,2 km/h
17.12.2010 04:00 -10,4 C 78 % 1004,0 hPa 0,0 l/m 0,1 km/h N -13,6 C -10,4 C 1,6 km/h
17.12.2010 05:00 -11,9 C 80 % 1003,4 hPa 0,0 l/m 0,0 km/h N -14,7 C -11,9 C 0,0 km/h
17.12.2010 06:00 -12,8 C 81 % 1002,7 hPa 0,0 l/m 0,0 km/h N -15,5 C -12,8 C 0,0 km/h
17.12.2010 07:00 -12,8 C 83 % 1002,1 hPa 0,0 l/m 0,0 km/h N -15,1 C -12,8 C 0,8 km/h
17.12.2010 08:00 -10,3 C 85 % 1001,1 hPa 0,0 l/m 0,0 km/h N -12,4 C -10,3 C 1,6 km/h
17.12.2010 09:00 -7,5 C 84 % 1000,0 hPa 0,0 l/m 1,6 km/h S-SO -9,7 C -7,5 C 8,0 km/h
17.12.2010 10:00 -5,7 C 77 % 999,0 hPa 0,0 l/m 5,0 km/h O-SO -9,1 C -5,7 C 15,7 km/h
17.12.2010 11:00 -5,2 C 71 % 998,3 hPa 0,0 l/m 5,6 km/h S-SO -9,5 C -5,2 C 18,1 km/h
17.12.2010 12:00 -4,9 C 70 % 997,9 hPa 0,0 l/m 5,4 km/h SO -9,5 C -4,9 C 20,5 km/h
17.12.2010 13:00 -4,5 C 71 % 997,8 hPa 0,0 l/m 3,4 km/h O-SO -9,0 C -4,5 C 14,1 km/h
17.12.2010 14:00 -4,8 C 72 % 997,8 hPa 0,0 l/m 3,7 km/h S-SO -9,1 C -4,8 C 11,3 km/h
17.12.2010 15:00 -5,1 C 73 % 998,2 hPa 0,0 l/m 3,5 km/h S-SO -9,2 C -5,1 C 14,9 km/h
17.12.2010 16:00 -5,2 C 74 % 998,7 hPa 0,0 l/m 3,8 km/h SO -9,1 C -5,2 C 11,7 km/h
17.12.2010 17:00 -5,2 C 78 % 999,1 hPa 0,0 l/m 1,7 km/h O -8,5 C -5,2 C 8,0 km/h
17.12.2010 18:00 -5,3 C 81 % 999,3 hPa 0,0 l/m 1,1 km/h S -8,1 C -5,3 C 7,2 km/h
17.12.2010 19:00 -5,4 C 83 % 999,8 hPa 0,0 l/m 0,4 km/h N -7,9 C -5,4 C 4,4 km/h
17.12.2010 20:00 -5,5 C 84 % 999,8 hPa 0,0 l/m 0,4 km/h N -7,8 C -5,5 C 4,4 km/h
17.12.2010 21:00 -5,7 C 85 % 1000,3 hPa 0,0 l/m 0,2 km/h N -7,8 C -5,7 C 3,6 km/h
17.12.2010 22:00 -5,8 C 85 % 1000,9 hPa 0,0 l/m 0,3 km/h N -7,9 C -5,8 C 2,8 km/h
17.12.2010 23:00 -5,8 C 85 % 1001,3 hPa 0,0 l/m 0,1 km/h N -8,0 C -5,8 C 2,8 km/h
18.12.2010 00:00 -6,0 C 85 % 1001,4 hPa 0,0 l/m 0,1 km/h N -8,1 C -6,0 C 2,0 km/h
18.12.2010 01:00 -6,2 C 85 % 1001,2 hPa 0,0 l/m 0,5 km/h N -8,3 C -6,2 C 3,6 km/h
18.12.2010 02:00 -6,6 C 85 % 1001,4 hPa 0,0 l/m 0,6 km/h N -8,7 C -6,6 C 3,2 km/h
18.12.2010 03:00 -6,8 C 85 % 1002,3 hPa 0,0 l/m 0,2 km/h N -8,9 C -6,8 C 2,4 km/h
18.12.2010 04:00 -6,9 C 85 % 1002,0 hPa 0,0 l/m 0,1 km/h N -9,0 C -6,9 C 1,6 km/h
18.12.2010 05:00 -6,9 C 86 % 1002,3 hPa 0,0 l/m 0,4 km/h N -8,9 C -6,9 C 2,8 km/h
18.12.2010 06:00 -6,9 C 86 % 1002,7 hPa 0,0 l/m 0,3 km/h N -8,8 C -6,9 C 3,2 km/h
18.12.2010 07:00 -6,9 C 86 % 1002,8 hPa 0,0 l/m 0,1 km/h N -8,8 C -6,9 C 2,0 km/h
18.12.2010 08:00 -6,9 C 86 % 1003,6 hPa 0,0 l/m 0,0 km/h N -8,8 C -6,9 C 1,6 km/h
18.12.2010 09:00 -6,8 C 86 % 1004,0 hPa 0,0 l/m 0,0 km/h N -8,7 C -6,8 C 0,4 km/h
18.12.2010 10:00 -6,1 C 85 % 1004,0 hPa 0,0 l/m 0,0 km/h N -8,2 C -6,1 C 0,0 km/h
18.12.2010 11:00 -5,1 C 85 % 1003,6 hPa 0,0 l/m 0,0 km/h N-NW -7,2 C -5,1 C 0,8 km/h
18.12.2010 12:00 -4,5 C 83 % 1003,3 hPa 0,0 l/m 1,9 km/h N-NO -6,9 C -4,5 C 6,0 km/h
18.12.2010 13:00 -4,0 C 81 % 1003,3 hPa 0,0 l/m 3,4 km/h NW -6,8 C -4,0 C 9,6 km/h
18.12.2010 14:00 -3,6 C 82 % 1003,6 hPa 0,0 l/m 2,8 km/h N-NW -6,2 C -3,6 C 6,8 km/h
18.12.2010 15:00 -3,2 C 80 % 1004,2 hPa 0,0 l/m 1,5 km/h N-NW -6,2 C -3,2 C 5,6 km/h
18.12.2010 16:00 -3,2 C 78 % 1004,9 hPa 0,0 l/m 0,3 km/h N -6,5 C -3,2 C 3,6 km/h
18.12.2010 17:00 -4,2 C 76 % 1005,7 hPa 0,0 l/m 0,0 km/h N -7,8 C -4,2 C 0,0 km/h
18.12.2010 18:00 -7,3 C 76 % 1006,4 hPa 0,0 l/m 0,0 km/h N -10,7 C -7,3 C 1,2 km/h
18.12.2010 19:00 -9,1 C 80 % 1006,9 hPa 0,0 l/m 0,0 km/h N -11,9 C -9,1 C 2,0 km/h
18.12.2010 20:00 -10,0 C 82 % 1007,5 hPa 0,0 l/m 0,0 km/h N -12,5 C -10,0 C 0,8 km/h
18.12.2010 21:00 -11,4 C 83 % 1008,1 hPa 0,0 l/m 0,0 km/h N -13,8 C -11,4 C 0,4 km/h
18.12.2010 22:00 -12,3 C 85 % 1008,8 hPa 0,0 l/m 0,1 km/h N -14,3 C -12,3 C 1,6 km/h
18.12.2010 23:00 -12,4 C 84 % 1009,2 hPa 0,0 l/m 0,1 km/h N -14,5 C -12,4 C 1,6 km/h
19.12.2010 00:00 -12,3 C 84 % 1009,3 hPa 0,0 l/m 0,0 km/h N -14,5 C -12,3 C 0,4 km/h
19.12.2010 01:00 -13,2 C 84 % 1009,5 hPa 0,0 l/m 0,0 km/h N -15,3 C -13,2 C 1,2 km/h
19.12.2010 02:00 -14,0 C 84 % 1009,8 hPa 0,0 l/m 0,1 km/h N -16,1 C -14,0 C 0,8 km/h
19.12.2010 03:00 -14,7 C 84 % 1009,5 hPa 0,0 l/m 0,0 km/h N -16,8 C -14,7 C 0,8 km/h
19.12.2010 04:00 -15,0 C 84 % 1009,0 hPa 0,0 l/m 0,0 km/h N -17,1 C -15,0 C 0,0 km/h
19.12.2010 05:00 -15,7 C 84 % 1008,5 hPa 0,0 l/m 0,0 km/h N -17,7 C -15,7 C 0,0 km/h
19.12.2010 06:00 -16,3 C 84 % 1008,3 hPa 0,0 l/m 0,0 km/h N -18,5 C -16,3 C 0,0 km/h
19.12.2010 07:00 -15,0 C 85 % 1008,0 hPa 0,0 l/m 0,2 km/h N -16,9 C -15,0 C 2,0 km/h
19.12.2010 08:00 -13,4 C 85 % 1007,5 hPa 0,0 l/m 0,0 km/h N -15,3 C -13,4 C 0,8 km/h
19.12.2010 09:00 -12,8 C 85 % 1007,9 hPa 0,0 l/m 0,1 km/h N -14,8 C -12,8 C 1,6 km/h
19.12.2010 10:00 -11,0 C 85 % 1008,2 hPa 0,0 l/m 0,5 km/h N -13,0 C -11,0 C 3,6 km/h
19.12.2010 11:00 -9,5 C 85 % 1008,3 hPa 0,0 l/m 0,3 km/h N -11,5 C -9,5 C 2,8 km/h
19.12.2010 12:00 -8,9 C 85 % 1008,3 hPa 0,0 l/m 0,4 km/h N -10,9 C -8,9 C 2,4 km/h
19.12.2010 13:00 -8,3 C 85 % 1008,2 hPa 0,0 l/m 0,1 km/h N -10,3 C -8,3 C 2,0 km/h
19.12.2010 14:00 -7,7 C 84 % 1007,9 hPa 0,0 l/m 0,4 km/h N -10,0 C -7,7 C 3,6 km/h
19.12.2010 15:00 -8,0 C 82 % 1008,0 hPa 0,0 l/m 0,3 km/h N -10,5 C -8,0 C 2,0 km/h
19.12.2010 16:00 -9,0 C 81 % 1008,1 hPa 0,0 l/m 0,0 km/h N -11,6 C -9,0 C 0,8 km/h
19.12.2010 17:00 -11,0 C 81 % 1007,8 hPa 0,0 l/m 0,1 km/h N -13,6 C -11,0 C 1,2 km/h
19.12.2010 18:00 -11,8 C 82 % 1007,6 hPa 0,0 l/m 0,0 km/h N -14,2 C -11,8 C 0,8 km/h
19.12.2010 19:00 -12,2 C 83 % 1006,9 hPa 0,0 l/m 0,0 km/h N -14,5 C -12,2 C 1,2 km/h
19.12.2010 20:00 -11,9 C 84 % 1006,3 hPa 0,0 l/m 0,0 km/h N -14,1 C -11,9 C 0,0 km/h
19.12.2010 21:00 -11,4 C 85 % 1005,8 hPa 0,0 l/m 0,0 km/h N -13,4 C -11,4 C 0,4 km/h
19.12.2010 22:00 -11,5 C 85 % 1005,3 hPa 0,0 l/m 0,0 km/h N -13,5 C -11,5 C 1,2 km/h
19.12.2010 23:00 -12,0 C 85 % 1005,0 hPa 0,0 l/m 0,1 km/h N -14,0 C -12,0 C 1,2 km/h
Min-Datum _ 19.12.10 13.12.10 17.12.10 - 16.12.10 - 19.12.10 19.12.10 16.12.10
_ Min-Zeit 06:45 18:30 13:00 - 00:15 - 06:45 06:45 00:45
Minimum _ -16,5 C 59 % 997,3 hPa - 0,0 km/h - -18,7 C -16,5 C 0,0 km/h
Max-Datum _ 13.12.10 18.12.10 15.12.10 13.12.10 13.12.10 - 13.12.10 13.12.10 14.12.10
_ Max-Zeit 00:00 22:15 23:45 00:00 12:30 - 00:00 00:15 23:00
Maximum _ 1,2 C 92 % 1021,1 hPa 0,0 l/m 16,1 km/h
NW
- -2,2 C -0,4 C 43,5 km/h
W
Durchschnitt _ -6,2 C 78 % 1011,7 hPa #0,0 l/m 5,0 km/h NW -9,4 C -8,0 C 14,4 km/h